Terminal Aerodrome Forecast
Issued by NWS

Home | Current Version | Previous Version | Graphics & Text | Print | Product List | Glossary On
Versions: 1 2 3 4 5 6 7 8 9 10 11 12 13 14 15 16 17 18 19 20 21 22 23 24 25 26 27 28 29 30
651
FTUS43 KLOT 231148
TAFDPA
TAF
KDPA 231148Z 2312/2412 00000KT 6SM BR BKN250
     FM231330 VRB03KT P6SM BKN250
     FM231700 19006KT P6SM VCTS SCT040 BKN070CB BKN250
     FM232000 18004KT P6SM SCT040 OVC200
     FM241000 18009KT P6SM -SHRA SCT040 OVC100=

USA.gov is the U.S. government's official web portal to all federal, state and local government web resources and services.